Time;durP1;ratioP1;P1;durP2;ratioP2;P2;SDS_P1;SDS_P2;PMS_P1;PMS_P2;Temp;Humidity;BMP_temperature;BMP_pressure;BME280_temperature;BME280_humidity;BME280_pressure;Samples;Min_cycle;Max_cycle;Signal;HPM_P1;HPM_P2
2022/10/25 00:00:13;;;;;;;1.65;0.90;;;14.60;99.90;;;;;;5012550;28;20488;-90
2022/10/25 00:02:39;;;;;;;1.42;0.80;;;14.60;99.90;;;;;;5012394;28;20404;-90
2022/10/25 00:05:05;;;;;;;1.17;1.05;;;14.50;99.90;;;;;;5013747;28;20497;-90
2022/10/25 00:07:31;;;;;;;1.13;1.02;;;14.50;99.90;;;;;;5028622;28;20121;-90
2022/10/25 00:09:56;;;;;;;0.90;0.80;;;14.40;99.90;;;;;;5013622;28;20101;-90
2022/10/25 00:12:22;;;;;;;1.00;0.88;;;14.40;99.90;;;;;;5013206;28;20026;-90
2022/10/25 00:14:48;;;;;;;0.93;0.70;;;14.50;99.90;;;;;;5012302;28;20411;-90
2022/10/25 00:17:14;;;;;;;1.60;1.17;;;14.40;99.90;;;;;;5013325;28;20075;-90
2022/10/25 00:19:39;;;;;;;1.35;1.00;;;14.40;99.90;;;;;;5013384;28;20025;-90
2022/10/25 00:22:05;;;;;;;1.77;1.00;;;14.40;99.90;;;;;;5012190;28;20033;-90
2022/10/25 00:24:30;;;;;;;1.13;0.90;;;14.30;99.90;;;;;;5028466;28;20045;-90
2022/10/25 00:26:56;;;;;;;0.73;0.65;;;14.40;99.90;;;;;;5011828;28;20527;-90
2022/10/25 00:29:22;;;;;;;0.88;0.77;;;14.40;99.90;;;;;;5013196;28;20618;-90
2022/10/25 00:31:47;;;;;;;1.52;0.90;;;14.50;99.90;;;;;;5011613;28;20037;-90
2022/10/25 00:34:13;;;;;;;1.00;0.90;;;14.40;99.90;;;;;;5012020;28;20029;-90
2022/10/25 00:36:39;;;;;;;1.80;0.98;;;14.30;99.90;;;;;;5012079;28;20120;-90
2022/10/25 00:39:05;;;;;;;1.17;0.80;;;14.30;99.90;;;;;;5013099;28;20495;-90
2022/10/25 00:41:32;;;;;;;1.92;0.90;;;14.20;99.90;;;;;;5012464;28;20061;-90
2022/10/25 00:44:35;;;;;;;1.42;1.10;;;14.20;99.90;;;;;;5013066;28;20022;-90
2022/10/25 00:47:12;;;;;;;1.10;0.90;;;14.30;99.90;;;;;;5012983;28;20491;-90
2022/10/25 00:49:37;;;;;;;1.02;0.80;;;14.00;99.90;;;;;;5011672;28;20526;-90
2022/10/25 00:52:05;;;;;;;1.70;1.00;;;14.10;99.90;;;;;;5012760;28;20034;-90
2022/10/25 00:54:37;;;;;;;1.95;1.23;;;13.90;99.90;;;;;;5013228;28;20109;-90
2022/10/25 00:57:29;;;;;;;1.30;0.90;;;14.00;99.90;;;;;;5010995;28;20042;-90
2022/10/25 00:59:55;;;;;;;1.08;0.82;;;14.00;99.90;;;;;;5012728;28;20022;-90
2022/10/25 01:02:22;;;;;;;2.33;0.95;;;14.00;99.90;;;;;;5012733;28;20079;-91
2022/10/25 01:04:48;;;;;;;2.28;1.02;;;14.00;99.90;;;;;;5013187;28;20072;-90
2022/10/25 01:07:14;;;;;;;1.17;0.82;;;13.90;99.90;;;;;;5012536;28;20149;-90
2022/10/25 01:09:40;;;;;;;0.93;0.82;;;13.70;99.90;;;;;;5012612;28;20108;-90
2022/10/25 01:12:06;;;;;;;2.08;1.10;;;13.60;99.90;;;;;;5012724;28;20018;-90
2022/10/25 01:14:35;;;;;;;1.75;1.08;;;13.70;99.90;;;;;;5012698;28;20037;-90
2022/10/25 01:17:41;;;;;;;0.98;0.90;;;13.80;99.90;;;;;;5012536;28;20033;-90
2022/10/25 01:20:27;;;;;;;1.63;0.80;;;13.90;99.90;;;;;;4954993;28;20130;-90
2022/10/25 01:23:21;;;;;;;3.25;1.75;;;14.00;99.90;;;;;;4917695;29;20083;-89
2022/10/25 01:26:07;;;;;;;1.05;0.82;;;13.90;99.90;;;;;;4914648;29;20052;-90
2022/10/25 01:29:06;;;;;;;1.40;0.73;;;13.90;99.90;;;;;;4917265;29;20106;-90
2022/10/25 01:31:49;;;;;;;1.15;1.05;;;13.80;99.90;;;;;;4921434;29;20036;-90
2022/10/25 01:34:25;;;;;;;1.10;0.77;;;13.90;99.90;;;;;;4917571;29;20036;-90
2022/10/25 01:37:11;;;;;;;2.97;0.98;;;13.80;99.90;;;;;;4917557;29;20040;-90
2022/10/25 01:40:02;;;;;;;1.27;1.00;;;13.90;99.90;;;;;;4898325;29;20052;-90
2022/10/25 01:43:00;;;;;;;2.08;0.80;;;13.90;99.90;;;;;;4897757;29;20096;-90
2022/10/25 01:45:35;;;;;;;1.08;0.77;;;13.80;99.90;;;;;;4882900;29;20096;-90
2022/10/25 01:48:12;;;;;;;0.93;0.75;;;13.70;99.90;;;;;;4882701;29;20116;-89
2022/10/25 01:50:41;;;;;;;1.27;1.17;;;13.70;99.90;;;;;;4884129;29;20041;-90
2022/10/25 01:53:07;;;;;;;1.65;0.95;;;13.90;99.90;;;;;;4879517;29;20042;-90
2022/10/25 01:55:55;;;;;;;1.20;1.10;;;13.80;99.90;;;;;;4897939;29;20044;-90
2022/10/25 01:59:05;;;;;;;3.10;0.90;;;13.80;99.90;;;;;;4916825;29;20029;-90
2022/10/25 02:01:30;;;;;;;2.10;0.88;;;13.70;99.90;;;;;;4955109;29;20035;-89
2022/10/25 02:04:08;;;;;;;1.85;0.85;;;13.60;99.90;;;;;;4955171;29;20505;-90
2022/10/25 02:06:58;;;;;;;0.80;0.80;;;13.60;99.90;;;;;;4938979;28;20078;-89
2022/10/25 02:09:47;;;;;;;0.93;0.90;;;13.70;99.90;;;;;;4955236;28;20039;-90
2022/10/25 02:12:18;;;;;;;1.08;0.82;;;13.70;99.90;;;;;;4954580;28;20031;-90
2022/10/25 02:14:53;;;;;;;1.90;1.33;;;13.60;99.90;;;;;;4954999;28;20077;-90
2022/10/25 02:17:23;;;;;;;1.67;1.00;;;13.80;99.90;;;;;;4967458;28;20057;-90
2022/10/25 02:19:58;;;;;;;2.83;1.02;;;13.80;99.90;;;;;;4993775;28;20018;-90
2022/10/25 02:22:31;;;;;;;2.83;1.00;;;13.90;99.90;;;;;;4977245;28;20065;-90
2022/10/25 02:24:57;;;;;;;1.00;0.88;;;13.80;99.90;;;;;;4993316;28;20155;-90
2022/10/25 02:27:24;;;;;;;1.40;0.90;;;13.50;99.90;;;;;;4992934;28;20058;-90
2022/10/25 02:29:52;;;;;;;0.93;0.93;;;13.50;99.90;;;;;;4976939;28;20069;-90
2022/10/25 02:32:18;;;;;;;1.55;1.15;;;13.50;99.90;;;;;;4992931;28;20034;-89
2022/10/25 02:34:47;;;;;;;1.73;1.00;;;13.60;99.90;;;;;;4998926;28;20057;-89
2022/10/25 02:37:13;;;;;;;1.00;0.90;;;13.60;99.90;;;;;;5015125;28;20395;-90
2022/10/25 02:39:39;;;;;;;3.35;0.93;;;13.50;99.90;;;;;;5014741;28;20062;-89
2022/10/25 02:42:05;;;;;;;1.05;0.93;;;13.40;99.90;;;;;;5014887;28;20033;-89
2022/10/25 02:44:30;;;;;;;1.00;0.90;;;13.30;99.90;;;;;;5014819;28;20021;-89
2022/10/25 02:46:56;;;;;;;1.23;0.90;;;13.30;99.90;;;;;;5014787;28;20561;-89
2022/10/25 02:49:22;;;;;;;1.60;1.10;;;13.30;99.90;;;;;;5014944;28;20017;-89
2022/10/25 02:51:48;;;;;;;1.35;0.85;;;13.20;99.90;;;;;;5014691;28;20044;-89
2022/10/25 02:54:14;;;;;;;1.02;0.90;;;13.20;99.90;;;;;;5014631;28;20432;-89
2022/10/25 02:56:39;;;;;;;2.47;1.17;;;13.10;99.90;;;;;;5013336;28;20116;-89
2022/10/25 02:59:05;;;;;;;2.15;1.02;;;13.30;99.90;;;;;;5014445;28;20113;-89
2022/10/25 03:01:31;;;;;;;1.75;0.80;;;13.30;99.90;;;;;;5014597;28;20088;-89
2022/10/25 03:03:56;;;;;;;1.38;1.10;;;13.30;99.90;;;;;;5012995;28;20064;-89
2022/10/25 03:06:22;;;;;;;1.67;1.10;;;13.20;99.90;;;;;;5014487;28;20076;-89
2022/10/25 03:08:48;;;;;;;1.13;1.02;;;13.30;99.90;;;;;;5013028;28;20068;-89
2022/10/25 03:11:15;;;;;;;2.55;1.38;;;13.10;99.90;;;;;;5029406;28;20510;-89
2022/10/25 03:13:41;;;;;;;1.40;0.80;;;13.20;99.90;;;;;;5014095;28;20025;-89
2022/10/25 03:16:07;;;;;;;1.08;0.98;;;13.30;99.90;;;;;;5014094;28;20026;-89
2022/10/25 03:18:32;;;;;;;1.75;1.00;;;13.30;99.90;;;;;;5013840;28;20044;-89
2022/10/25 03:21:00;;;;;;;0.98;0.88;;;13.30;99.90;;;;;;5012932;28;20384;-89
2022/10/25 03:23:27;;;;;;;1.42;0.90;;;13.30;99.90;;;;;;5013994;28;20018;-89
2022/10/25 03:25:54;;;;;;;1.58;1.48;;;13.30;99.90;;;;;;5029177;28;20068;-89
2022/10/25 03:28:20;;;;;;;1.80;1.25;;;13.20;99.90;;;;;;5014201;28;20499;-90
2022/10/25 03:30:46;;;;;;;2.10;1.17;;;13.30;99.90;;;;;;5014145;28;20061;-89
2022/10/25 03:33:12;;;;;;;1.40;1.15;;;13.30;99.90;;;;;;5013590;28;20068;-89
2022/10/25 03:35:37;;;;;;;1.60;0.90;;;13.10;99.90;;;;;;5013794;28;20476;-89
2022/10/25 03:38:03;;;;;;;1.67;0.98;;;13.20;99.90;;;;;;5012376;28;20029;-89
2022/10/25 03:40:29;;;;;;;0.80;0.80;;;13.40;99.90;;;;;;5029169;28;20033;-89
2022/10/25 03:42:55;;;;;;;1.73;1.00;;;13.30;99.90;;;;;;5013212;28;20534;-89
2022/10/25 03:45:20;;;;;;;1.85;1.38;;;13.20;99.90;;;;;;5013880;28;20426;-89
2022/10/25 03:47:46;;;;;;;1.10;1.00;;;13.10;99.90;;;;;;5013396;28;20398;-89
2022/10/25 03:50:12;;;;;;;1.50;1.00;;;13.10;99.90;;;;;;5013913;28;20026;-89
2022/10/25 03:52:38;;;;;;;1.88;1.20;;;13.20;99.90;;;;;;5013484;28;20032;-89
2022/10/25 03:55:05;;;;;;;1.55;0.93;;;13.20;99.90;;;;;;5013656;28;20026;-89
2022/10/25 03:57:31;;;;;;;1.42;1.20;;;13.30;99.90;;;;;;5028776;28;20034;-89
2022/10/25 03:59:58;;;;;;;0.82;0.80;;;13.40;99.90;;;;;;5013368;28;20075;-89
2022/10/25 04:02:24;;;;;;;4.57;1.85;;;13.40;99.90;;;;;;5011840;28;20061;-89
2022/10/25 04:04:50;;;;;;;1.40;0.98;;;13.40;99.90;;;;;;5013462;28;20022;-89
2022/10/25 04:07:16;;;;;;;1.90;0.90;;;13.40;99.90;;;;;;5012009;28;20160;-89
2022/10/25 04:09:42;;;;;;;1.50;0.95;;;13.40;99.90;;;;;;5013404;28;20069;-89
2022/10/25 04:12:08;;;;;;;1.15;0.95;;;13.40;99.90;;;;;;5012091;28;20442;-89
2022/10/25 04:14:33;;;;;;;1.20;1.10;;;13.20;99.90;;;;;;5013293;28;20037;-89
2022/10/25 04:16:59;;;;;;;1.88;1.10;;;13.00;99.90;;;;;;5012845;28;20164;-89
2022/10/25 04:19:25;;;;;;;2.25;1.13;;;13.10;99.90;;;;;;5028440;28;20045;-89
2022/10/25 04:21:50;;;;;;;1.00;0.90;;;13.30;99.90;;;;;;5027942;28;20121;-89
2022/10/25 04:24:16;;;;;;;1.95;1.10;;;13.30;99.90;;;;;;5028041;28;20026;-89
2022/10/25 04:26:42;;;;;;;1.08;0.90;;;13.60;99.90;;;;;;5013108;28;20107;-89
2022/10/25 04:29:10;;;;;;;1.35;0.88;;;13.60;99.90;;;;;;5013063;28;20097;-89
2022/10/25 04:31:35;;;;;;;1.13;1.02;;;13.60;99.90;;;;;;5012748;28;20033;-89
2022/10/25 04:34:01;;;;;;;1.45;1.00;;;13.60;99.90;;;;;;5012695;28;20033;-89
2022/10/25 04:36:30;;;;;;;1.58;0.90;;;13.70;99.90;;;;;;5027813;28;20558;-89
2022/10/25 04:38:56;;;;;;;1.50;1.10;;;13.60;99.90;;;;;;5028129;28;20510;-89
2022/10/25 04:41:22;;;;;;;1.40;1.10;;;13.50;99.90;;;;;;5012688;28;20033;-89
2022/10/25 04:43:50;;;;;;;2.00;1.38;;;13.50;99.90;;;;;;5012919;28;20026;-89
2022/10/25 04:46:16;;;;;;;1.10;1.00;;;13.50;99.90;;;;;;5012739;28;20092;-89
2022/10/25 04:48:42;;;;;;;0.93;0.93;;;13.50;99.90;;;;;;5027824;28;20033;-89
2022/10/25 04:51:09;;;;;;;0.95;0.88;;;13.50;99.90;;;;;;5027387;28;20034;-89
2022/10/25 04:53:35;;;;;;;1.65;1.10;;;13.60;99.90;;;;;;5026966;28;20033;-89
2022/10/25 04:56:07;;;;;;;1.45;1.05;;;13.70;99.90;;;;;;5012928;28;20030;-89
2022/10/25 04:58:33;;;;;;;1.13;1.05;;;13.40;99.90;;;;;;5012624;28;20022;-89
2022/10/25 05:01:10;;;;;;;2.63;1.42;;;13.40;99.90;;;;;;5027747;28;20034;-89
2022/10/25 05:03:37;;;;;;;1.52;1.00;;;13.50;99.90;;;;;;5012510;28;20046;-89
2022/10/25 05:06:16;;;;;;;1.23;1.00;;;13.50;99.90;;;;;;5012463;28;20026;-89
2022/10/25 05:08:45;;;;;;;2.25;1.48;;;13.50;99.90;;;;;;5011359;28;20018;-89
2022/10/25 05:11:12;;;;;;;0.88;0.88;;;13.60;99.90;;;;;;5012442;28;20030;-89
2022/10/25 05:13:39;;;;;;;2.00;0.80;;;13.50;99.90;;;;;;5012618;28;20022;-89
2022/10/25 05:16:06;;;;;;;1.38;1.05;;;13.60;99.90;;;;;;5012613;28;20034;-89
2022/10/25 05:18:32;;;;;;;2.17;1.08;;;13.60;99.90;;;;;;5027367;28;20034;-89
2022/10/25 05:21:05;;;;;;;1.20;1.05;;;13.50;99.90;;;;;;5012514;28;20029;-89
2022/10/25 05:23:33;;;;;;;1.85;0.90;;;13.50;99.90;;;;;;5012229;28;20030;-89
2022/10/25 05:26:11;;;;;;;2.50;1.10;;;13.40;99.90;;;;;;5027515;28;20549;-89
2022/10/25 05:28:40;;;;;;;1.48;0.98;;;13.40;99.90;;;;;;5012776;28;20080;-89
2022/10/25 05:31:07;;;;;;;2.33;1.27;;;13.30;99.90;;;;;;5027277;28;20087;-89
2022/10/25 05:33:33;;;;;;;1.77;1.27;;;13.30;99.90;;;;;;5012207;28;20026;-90
2022/10/25 05:36:00;;;;;;;4.22;1.20;;;13.40;99.90;;;;;;5012648;28;20117;-89
2022/10/25 05:38:26;;;;;;;1.67;1.08;;;13.40;99.90;;;;;;5012311;28;20026;-89
2022/10/25 05:40:58;;;;;;;2.38;1.00;;;13.40;99.90;;;;;;5012267;28;20025;-89
2022/10/25 05:43:24;;;;;;;1.55;1.00;;;13.40;99.90;;;;;;5027663;28;20111;-89
2022/10/25 05:45:50;;;;;;;1.42;0.95;;;13.30;99.90;;;;;;5012412;28;20030;-90
2022/10/25 05:48:17;;;;;;;4.80;1.20;;;13.30;99.90;;;;;;5011953;28;20022;-89
2022/10/25 05:50:43;;;;;;;1.08;0.98;;;13.30;99.90;;;;;;5012536;28;20062;-90
2022/10/25 05:53:09;;;;;;;1.88;1.02;;;13.40;99.90;;;;;;5010942;28;20022;-89
2022/10/25 05:55:35;;;;;;;1.02;0.93;;;13.30;99.90;;;;;;5012168;28;20507;-89
2022/10/25 05:58:02;;;;;;;1.63;1.13;;;13.30;99.90;;;;;;5011002;28;20062;-89
2022/10/25 06:00:29;;;;;;;2.17;1.02;;;13.40;99.90;;;;;;5012301;28;20087;-90
2022/10/25 06:02:54;;;;;;;1.33;1.05;;;13.30;99.90;;;;;;5010515;28;20161;-90
2022/10/25 06:05:20;;;;;;;1.50;1.10;;;13.20;99.90;;;;;;5012296;28;20117;-89
2022/10/25 06:07:46;;;;;;;1.40;1.20;;;13.30;99.90;;;;;;5015847;28;20018;-90
2022/10/25 06:10:12;;;;;;;1.02;1.00;;;13.40;99.90;;;;;;5030827;28;20602;-89
2022/10/25 06:12:38;;;;;;;2.28;1.40;;;13.30;99.90;;;;;;5015595;28;20105;-90
2022/10/25 06:15:04;;;;;;;1.02;1.00;;;13.20;99.90;;;;;;5015375;28;20022;-89
2022/10/25 06:17:30;;;;;;;1.30;1.10;;;13.20;99.90;;;;;;5015162;28;20105;-89
2022/10/25 06:19:55;;;;;;;1.67;1.05;;;13.30;99.90;;;;;;5015487;28;20585;-89
2022/10/25 06:22:21;;;;;;;2.70;1.45;;;13.40;99.90;;;;;;5030596;28;20030;-90
2022/10/25 06:24:47;;;;;;;1.25;1.08;;;13.30;99.90;;;;;;5015161;28;20042;-89
2022/10/25 06:27:12;;;;;;;2.13;1.38;;;13.10;99.90;;;;;;5015416;28;20480;-89
2022/10/25 06:29:38;;;;;;;1.92;1.80;;;12.90;99.90;;;;;;5013937;28;20384;-89
2022/10/25 06:32:04;;;;;;;3.55;1.40;;;12.90;99.90;;;;;;5014937;28;20468;-89
2022/10/25 06:34:29;;;;;;;2.78;1.20;;;13.00;99.90;;;;;;5015271;28;20436;-89
2022/10/25 06:36:55;;;;;;;1.58;1.20;;;13.10;99.90;;;;;;5015238;28;20587;-89
2022/10/25 06:39:21;;;;;;;1.23;1.13;;;13.20;99.90;;;;;;5013860;28;20450;-90
2022/10/25 06:41:46;;;;;;;3.88;1.40;;;13.20;99.90;;;;;;5014895;28;20526;-90
2022/10/25 06:44:12;;;;;;;1.23;1.00;;;13.30;99.90;;;;;;5014908;28;20503;-90
2022/10/25 06:46:40;;;;;;;1.38;1.25;;;13.40;99.90;;;;;;5013686;28;20399;-90
2022/10/25 06:49:06;;;;;;;2.20;1.23;;;13.50;99.90;;;;;;5015074;28;20025;-90
2022/10/25 06:51:33;;;;;;;1.35;1.25;;;13.40;99.90;;;;;;5015322;28;20030;-90
2022/10/25 06:54:06;;;;;;;1.30;1.20;;;13.40;99.90;;;;;;5015327;28;20559;-90
2022/10/25 06:56:32;;;;;;;2.33;1.38;;;13.20;99.90;;;;;;5015006;28;20021;-90
2022/10/25 06:58:58;;;;;;;2.08;1.50;;;13.30;99.90;;;;;;5015014;28;20037;-90
2022/10/25 07:01:25;;;;;;;3.08;1.30;;;13.30;99.90;;;;;;5014667;28;20026;-90
2022/10/25 07:03:55;;;;;;;2.67;1.55;;;13.30;99.90;;;;;;5014642;28;20049;-90
2022/10/25 07:06:23;;;;;;;1.40;1.30;;;13.30;99.90;;;;;;5013643;28;20022;-90
2022/10/25 07:08:53;;;;;;;6.10;1.65;;;13.40;99.90;;;;;;5030102;28;20498;-90
2022/10/25 07:11:20;;;;;;;2.25;1.40;;;13.30;99.90;;;;;;5014343;28;20049;-90
2022/10/25 07:13:46;;;;;;;2.28;1.70;;;13.20;99.90;;;;;;5014785;28;20100;-89
2022/10/25 07:16:14;;;;;;;2.92;1.20;;;13.20;99.90;;;;;;5029182;28;20586;-90
2022/10/25 07:18:40;;;;;;;2.78;2.08;;;13.30;99.90;;;;;;5013027;28;20472;-90
2022/10/25 07:21:09;;;;;;;3.50;1.63;;;13.40;99.90;;;;;;5014719;28;20026;-90
2022/10/25 07:23:40;;;;;;;3.58;1.75;;;13.50;99.90;;;;;;5014964;28;20026;-90
2022/10/25 07:26:11;;;;;;;2.25;1.65;;;13.50;99.90;;;;;;5014433;28;20124;-90
2022/10/25 07:28:37;;;;;;;1.80;1.50;;;13.80;99.90;;;;;;5014362;28;20026;-90
2022/10/25 07:31:03;;;;;;;4.07;1.70;;;13.90;99.90;;;;;;5013944;28;20264;-90
2022/10/25 07:33:29;;;;;;;2.65;1.92;;;13.90;99.90;;;;;;5014329;28;20108;-90
2022/10/25 07:35:55;;;;;;;1.90;1.23;;;13.90;99.90;;;;;;5029636;28;20064;-90
2022/10/25 07:38:21;;;;;;;4.55;1.70;;;14.00;99.90;;;;;;5030026;28;20045;-90
2022/10/25 07:40:46;;;;;;;2.25;1.67;;;14.10;99.90;;;;;;5029499;28;20030;-90
2022/10/25 07:43:12;;;;;;;2.78;1.80;;;14.20;99.90;;;;;;5014505;28;20498;-90
2022/10/25 07:45:38;;;;;;;1.48;1.35;;;14.30;99.90;;;;;;5029245;28;20553;-90
2022/10/25 07:48:04;;;;;;;2.03;1.83;;;14.40;99.90;;;;;;5013065;28;20046;-90
2022/10/25 07:50:30;;;;;;;3.88;1.67;;;14.40;99.90;;;;;;5014299;28;20045;-90
2022/10/25 07:52:57;;;;;;;2.53;1.50;;;14.60;99.90;;;;;;5014465;28;20026;-91
2022/10/25 07:55:23;;;;;;;1.70;1.45;;;14.60;99.90;;;;;;5014315;28;20042;-91
2022/10/25 07:57:49;;;;;;;1.73;1.50;;;14.70;99.90;;;;;;5014578;28;20030;-90
2022/10/25 08:00:15;;;;;;;1.75;1.33;;;14.70;99.90;;;;;;5013085;28;20515;-90
2022/10/25 08:02:41;;;;;;;2.53;1.60;;;14.70;99.90;;;;;;5014280;28;20508;-90
2022/10/25 08:05:08;;;;;;;2.15;1.67;;;14.80;99.90;;;;;;5014465;28;20033;-91
2022/10/25 08:07:34;;;;;;;1.95;1.50;;;14.90;99.90;;;;;;5013288;28;20111;-91
2022/10/25 08:10:00;;;;;;;2.28;1.50;;;14.90;99.90;;;;;;5014557;28;20032;-91
2022/10/25 08:12:26;;;;;;;1.55;1.40;;;15.00;99.90;;;;;;5029261;28;20029;-92
2022/10/25 08:14:51;;;;;;;2.60;1.98;;;15.20;99.90;;;;;;5014210;28;20022;-91
2022/10/25 08:17:17;;;;;;;2.28;1.58;;;15.40;99.90;;;;;;5029485;28;20562;-91
2022/10/25 08:19:43;;;;;;;2.45;1.60;;;15.60;99.90;;;;;;5013209;28;20044;-91
2022/10/25 08:22:09;;;;;;;4.15;1.50;;;16.20;99.90;;;;;;5014818;28;20518;-91
2022/10/25 08:24:34;;;;;;;3.30;1.95;;;17.00;99.90;;;;;;5029609;28;20050;-92
2022/10/25 08:27:01;;;;;;;1.52;1.40;;;18.00;99.90;;;;;;5013427;28;20014;-91
2022/10/25 08:29:26;;;;;;;2.17;1.60;;;18.50;99.90;;;;;;5014295;28;20115;-91
2022/10/25 08:31:52;;;;;;;2.40;1.58;;;17.90;99.90;;;;;;5013887;28;20480;-90
2022/10/25 08:34:18;;;;;;;1.70;1.33;;;18.00;99.90;;;;;;5014310;28;20496;-91
2022/10/25 08:36:43;;;;;;;2.03;1.77;;;17.80;99.90;;;;;;5012796;28;20021;-91
2022/10/25 08:39:09;;;;;;;1.63;1.50;;;17.40;99.90;;;;;;5029647;28;20034;-92
2022/10/25 08:41:49;;;;;;;2.45;1.67;;;17.30;99.90;;;;;;5013775;28;20061;-91
2022/10/25 08:44:22;;;;;;;3.13;1.65;;;17.10;99.90;;;;;;5012976;28;20052;-91
2022/10/25 08:47:09;;;;;;;1.58;1.38;;;17.10;99.90;;;;;;5013655;28;20479;-91
2022/10/25 08:50:12;;;;;;;2.35;1.60;;;17.10;99.90;;;;;;5029166;28;20484;-91
2022/10/25 08:52:54;;;;;;;2.35;1.23;;;17.00;99.90;;;;;;5012560;28;20029;-92
2022/10/25 08:55:41;;;;;;;1.20;1.10;;;17.00;99.90;;;;;;5013850;28;20088;-92
2022/10/25 08:58:16;;;;;;;3.30;1.55;;;17.10;99.90;;;;;;5029143;28;20064;-92
2022/10/25 09:00:45;;;;;;;1.80;1.13;;;17.10;99.90;;;;;;5013931;28;20034;-91
2022/10/25 09:03:15;;;;;;;3.67;1.45;;;17.20;99.90;;;;;;5013782;28;20076;-92
2022/10/25 09:06:02;;;;;;;2.60;1.88;;;17.20;99.90;;;;;;5013829;28;20033;-91
2022/10/25 09:08:39;;;;;;;2.97;1.88;;;17.30;99.90;;;;;;5014044;28;20030;-91
2022/10/25 09:11:36;;;;;;;2.40;1.63;;;17.40;99.90;;;;;;5013076;28;20076;-91
2022/10/25 09:14:07;;;;;;;2.67;1.98;;;17.60;99.90;;;;;;5012841;28;20112;-92
2022/10/25 09:16:54;;;;;;;2.75;1.92;;;18.00;99.90;;;;;;5013643;28;20040;-91
2022/10/25 09:19:24;;;;;;;3.20;1.98;;;18.20;99.90;;;;;;5013580;28;20065;-92
2022/10/25 09:21:59;;;;;;;2.90;1.65;;;18.40;99.90;;;;;;5013599;28;20037;-92
2022/10/25 09:24:38;;;;;;;3.67;1.77;;;18.50;99.90;;;;;;5013527;28;20053;-92
2022/10/25 09:27:06;;;;;;;2.10;1.70;;;18.60;99.90;;;;;;5013236;28;20550;-91
2022/10/25 09:29:34;;;;;;;6.53;2.20;;;18.90;99.90;;;;;;5028983;28;20022;-91
2022/10/25 09:32:04;;;;;;;3.40;1.95;;;19.10;99.90;;;;;;5012892;28;20022;-89
2022/10/25 09:34:32;;;;;;;2.75;2.00;;;19.30;99.90;;;;;;5012947;28;20061;-90
2022/10/25 09:37:31;;;;;;;4.13;2.45;;;19.60;99.90;;;;;;5028027;28;20022;-92
2022/10/25 09:40:03;;;;;;;5.68;2.97;;;19.80;99.90;;;;;;5013674;28;20037;-90
2022/10/25 09:42:38;;;;;;;5.75;3.50;;;19.80;99.90;;;;;;5031585;28;20029;-90
2022/10/25 09:45:17;;;;;;;7.03;3.45;;;19.80;99.90;;;;;;5016489;28;20029;-90
2022/10/25 09:47:51;;;;;;;7.50;3.40;;;19.90;99.90;;;;;;5016109;28;20076;-90
2022/10/25 09:50:28;;;;;;;6.85;4.00;;;20.00;99.90;;;;;;5031552;28;20025;-89
2022/10/25 09:53:01;;;;;;;6.72;4.10;;;20.10;99.90;;;;;;5016478;28;20034;-90
2022/10/25 09:55:36;;;;;;;7.07;3.88;;;20.00;99.90;;;;;;5015004;28;20030;-90
2022/10/25 09:58:02;;;;;;;9.38;4.10;;;20.10;99.90;;;;;;5016328;28;20087;-90
2022/10/25 10:00:28;;;;;;;7.47;4.05;;;20.10;99.90;;;;;;5016289;28;20041;-90
2022/10/25 10:02:54;;;;;;;6.50;3.53;;;20.00;99.90;;;;;;5014635;28;20033;-89
2022/10/25 10:05:20;;;;;;;8.80;3.85;;;20.00;99.90;;;;;;5014549;28;20026;-90
2022/10/25 10:07:48;;;;;;;7.03;4.03;;;20.00;99.90;;;;;;5014707;28;20026;-91
2022/10/25 10:10:24;;;;;;;6.85;3.67;;;20.00;99.90;;;;;;5030774;28;20037;-91
2022/10/25 10:12:58;;;;;;;10.50;3.67;;;20.10;99.90;;;;;;5015682;28;20030;-90
2022/10/25 10:15:41;;;;;;;7.00;3.50;;;20.10;99.90;;;;;;5015758;28;20025;-91
2022/10/25 10:18:40;;;;;;;6.90;3.75;;;20.30;99.90;;;;;;5013940;28;20018;-90
2022/10/25 10:21:11;;;;;;;6.80;3.35;;;20.30;99.90;;;;;;4993514;28;20034;-90
2022/10/25 10:23:42;;;;;;;6.22;3.33;;;20.50;99.90;;;;;;4993282;28;20035;-90
2022/10/25 10:26:26;;;;;;;9.18;3.80;;;20.60;99.90;;;;;;4993190;28;20050;-89
2022/10/25 10:29:12;;;;;;;6.00;3.45;;;20.70;99.90;;;;;;4993544;28;20026;-89
2022/10/25 10:31:44;;;;;;;7.88;3.65;;;20.90;99.90;;;;;;4992988;28;20117;-91
2022/10/25 10:34:32;;;;;;;5.80;3.80;;;20.90;99.90;;;;;;4993470;28;20030;-89
2022/10/25 10:37:36;;;;;;;5.32;3.20;;;21.00;99.90;;;;;;4993102;28;20039;-90
2022/10/25 10:40:22;;;;;;;7.75;3.20;;;21.30;99.90;;;;;;4935157;29;20055;-89
2022/10/25 10:42:48;;;;;;;7.18;3.70;;;21.50;99.90;;;;;;4935006;29;20028;-90
2022/10/25 10:45:18;;;;;;;6.25;3.30;;;21.40;99.90;;;;;;4935168;29;20040;-88
2022/10/25 10:47:50;;;;;;;9.30;3.47;;;21.70;99.90;;;;;;4918989;29;20031;-90
2022/10/25 10:50:21;;;;;;;10.55;3.95;;;21.60;99.90;;;;;;4919152;29;20043;-89
2022/10/25 10:53:03;;;;;;;7.97;3.67;;;21.70;99.90;;;;;;4917778;29;20163;-89
2022/10/25 10:55:47;;;;;;;9.13;3.47;;;22.00;99.90;;;;;;4919278;29;20087;-89
2022/10/25 10:58:22;;;;;;;7.35;3.97;;;22.10;99.90;;;;;;4954048;29;20035;-89
2022/10/25 11:01:02;;;;;;;5.22;3.15;;;22.20;99.90;;;;;;4954015;29;20034;-89
2022/10/25 11:03:36;;;;;;;9.82;4.07;;;22.40;99.90;;;;;;4954294;29;20066;-89
2022/10/25 11:06:06;;;;;;;8.70;3.38;;;22.50;99.90;;;;;;4958969;28;20027;-89
2022/10/25 11:08:32;;;;;;;6.43;3.55;;;22.60;99.90;;;;;;4973031;28;20138;-89
2022/10/25 11:11:19;;;;;;;8.48;3.75;;;22.60;99.90;;;;;;5004589;28;20038;-89
2022/10/25 11:13:55;;;;;;;7.20;3.47;;;22.80;99.90;;;;;;5013065;28;20021;-90
2022/10/25 11:16:29;;;;;;;5.13;3.28;;;22.70;99.90;;;;;;5014322;28;20053;-89
2022/10/25 11:19:01;;;;;;;7.10;4.20;;;22.90;99.90;;;;;;5014291;28;20031;-90
2022/10/25 11:21:35;;;;;;;9.85;3.83;;;22.70;99.90;;;;;;5014212;28;20033;-88
2022/10/25 11:24:29;;;;;;;5.10;3.05;;;22.90;99.90;;;;;;5013142;28;20025;-90
2022/10/25 11:26:54;;;;;;;5.03;3.65;;;22.80;99.90;;;;;;5012974;28;20042;-89
2022/10/25 11:29:49;;;;;;;4.82;3.13;;;22.80;99.90;;;;;;5012922;28;20083;-90
2022/10/25 11:32:46;;;;;;;6.40;3.03;;;22.80;99.90;;;;;;5012375;28;20054;-89
2022/10/25 11:35:32;;;;;;;8.52;4.25;;;23.00;99.90;;;;;;5014228;28;20026;-90
2022/10/25 11:38:30;;;;;;;9.13;3.90;;;23.20;99.90;;;;;;5012475;28;20034;-90
2022/10/25 11:40:56;;;;;;;7.80;3.83;;;23.30;99.90;;;;;;5013615;28;20041;-88
2022/10/25 11:43:27;;;;;;;7.38;3.70;;;23.60;99.90;;;;;;5013751;28;20476;-90
2022/10/25 11:46:22;;;;;;;6.75;3.97;;;23.50;99.90;;;;;;5012553;28;20084;-89
2022/10/25 11:49:29;;;;;;;8.60;3.58;;;23.50;99.90;;;;;;4953102;29;20035;-90
2022/10/25 11:52:00;;;;;;;7.07;4.05;;;23.60;99.90;;;;;;4953194;29;20039;-89
2022/10/25 11:54:49;;;;;;;7.70;3.63;;;23.60;99.90;;;;;;4953117;29;20043;-89
2022/10/25 11:57:24;;;;;;;6.93;3.55;;;23.60;99.90;;;;;;4952716;29;20027;-89
2022/10/25 12:00:02;;;;;;;10.75;3.85;;;23.40;99.90;;;;;;4952914;29;20050;-89
2022/10/25 12:02:34;;;;;;;8.68;4.10;;;23.40;99.90;;;;;;4936201;29;20027;-89
2022/10/25 12:05:14;;;;;;;8.23;3.83;;;23.50;99.90;;;;;;4936687;29;20118;-90
2022/10/25 12:07:48;;;;;;;8.70;4.07;;;23.30;99.90;;;;;;4936485;29;20027;-89
2022/10/25 12:10:30;;;;;;;7.75;4.03;;;23.10;99.90;;;;;;4952821;29;20019;-90
2022/10/25 12:13:15;;;;;;;6.28;3.50;;;23.10;99.90;;;;;;4952299;29;20038;-90
2022/10/25 12:15:46;;;;;;;5.93;3.58;;;23.30;99.90;;;;;;4952926;29;20047;-90
2022/10/25 12:18:40;;;;;;;7.90;3.40;;;23.40;99.90;;;;;;4952327;29;20078;-89
2022/10/25 12:21:09;;;;;;;9.57;4.55;;;23.40;99.90;;;;;;4946506;29;20031;-88
2022/10/25 12:24:04;;;;;;;8.85;4.53;;;23.30;99.90;;;;;;4952392;29;20106;-88
2022/10/25 12:26:37;;;;;;;12.52;4.80;;;23.10;99.90;;;;;;4980916;28;20046;-89
2022/10/25 12:29:15;;;;;;;7.53;4.28;;;23.20;99.90;;;;;;4993583;28;20025;-90
2022/10/25 12:31:56;;;;;;;6.10;3.97;;;23.10;99.90;;;;;;5002417;28;20026;-90
2022/10/25 12:34:28;;;;;;;7.97;4.30;;;23.10;99.90;;;;;;5012867;28;20025;-89
2022/10/25 12:37:04;;;;;;;9.70;4.65;;;23.10;99.90;;;;;;5011310;28;20034;-89
2022/10/25 12:39:42;;;;;;;6.70;4.15;;;23.10;99.90;;;;;;5028114;28;20025;-90
2022/10/25 12:42:22;;;;;;;9.15;4.47;;;23.20;99.90;;;;;;5027536;28;20032;-89
2022/10/25 12:44:56;;;;;;;11.48;4.30;;;23.20;99.90;;;;;;5013070;28;20514;-89
2022/10/25 12:47:52;;;;;;;7.82;4.10;;;23.30;99.90;;;;;;5012723;28;20030;-90
2022/10/25 12:50:43;;;;;;;10.75;4.90;;;23.30;99.90;;;;;;5012686;28;20025;-89
2022/10/25 12:53:30;;;;;;;12.07;4.82;;;23.40;99.90;;;;;;5012937;28;20018;-89
2022/10/25 12:56:24;;;;;;;14.13;5.85;;;23.30;99.90;;;;;;5012861;28;20030;-89
2022/10/25 12:59:14;;;;;;;11.55;5.25;;;23.30;99.90;;;;;;5011501;28;20049;-89
2022/10/25 13:02:10;;;;;;;7.93;5.03;;;23.20;99.90;;;;;;5012599;28;20048;-89
2022/10/25 13:05:13;;;;;;;7.30;4.60;;;23.20;99.90;;;;;;5011014;28;20033;-89
2022/10/25 13:07:39;;;;;;;9.65;4.57;;;23.10;99.90;;;;;;5012465;28;20029;-89
2022/10/25 13:10:21;;;;;;;8.07;4.47;;;23.00;99.90;;;;;;5012668;28;20484;-90